sensor_id;sensor_type;location;lat;lon;timestamp;temperature;humidity
52765;DHT22;38650;44.536;18.664;2024-01-11T00:02:23;-2.90;85.40
52765;DHT22;38650;44.536;18.664;2024-01-11T00:04:50;-3.10;84.40
52765;DHT22;38650;44.536;18.664;2024-01-11T00:07:15;-3.10;85.70
52765;DHT22;38650;44.536;18.664;2024-01-11T00:09:42;-3.20;85.90
52765;DHT22;38650;44.536;18.664;2024-01-11T00:12:08;-3.20;86.10
52765;DHT22;38650;44.536;18.664;2024-01-11T00:14:35;-3.10;86.20
52765;DHT22;38650;44.536;18.664;2024-01-11T00:17:01;-3.20;85.00
52765;DHT22;38650;44.536;18.664;2024-01-11T00:19:27;-3.20;83.90
52765;DHT22;38650;44.536;18.664;2024-01-11T00:21:53;-3.20;84.00
52765;DHT22;38650;44.536;18.664;2024-01-11T00:24:18;-3.30;83.70
52765;DHT22;38650;44.536;18.664;2024-01-11T00:26:44;-3.40;84.60
52765;DHT22;38650;44.536;18.664;2024-01-11T00:29:10;-3.40;85.10
52765;DHT22;38650;44.536;18.664;2024-01-11T00:31:36;-3.40;84.30
52765;DHT22;38650;44.536;18.664;2024-01-11T00:34:03;-3.40;82.90
52765;DHT22;38650;44.536;18.664;2024-01-11T00:36:29;-3.40;83.40
52765;DHT22;38650;44.536;18.664;2024-01-11T00:38:55;-3.50;83.70
52765;DHT22;38650;44.536;18.664;2024-01-11T00:41:20;-3.50;82.60
52765;DHT22;38650;44.536;18.664;2024-01-11T00:43:46;-3.50;82.50
52765;DHT22;38650;44.536;18.664;2024-01-11T00:46:12;-3.50;83.60
52765;DHT22;38650;44.536;18.664;2024-01-11T00:48:38;-3.50;83.60
52765;DHT22;38650;44.536;18.664;2024-01-11T00:51:05;-3.50;85.00
52765;DHT22;38650;44.536;18.664;2024-01-11T00:53:30;-3.50;85.00
52765;DHT22;38650;44.536;18.664;2024-01-11T00:55:57;-3.50;84.80
52765;DHT22;38650;44.536;18.664;2024-01-11T00:58:23;-3.50;84.50
52765;DHT22;38650;44.536;18.664;2024-01-11T01:00:48;-3.50;84.50
52765;DHT22;38650;44.536;18.664;2024-01-11T01:03:15;-3.50;84.60
52765;DHT22;38650;44.536;18.664;2024-01-11T01:05:42;-3.50;84.80
52765;DHT22;38650;44.536;18.664;2024-01-11T01:08:07;-3.50;84.70
52765;DHT22;38650;44.536;18.664;2024-01-11T01:10:33;-3.50;84.80
52765;DHT22;38650;44.536;18.664;2024-01-11T01:12:59;-3.60;84.70
52765;DHT22;38650;44.536;18.664;2024-01-11T01:15:25;-3.70;85.40
52765;DHT22;38650;44.536;18.664;2024-01-11T01:17:50;-3.80;87.10
52765;DHT22;38650;44.536;18.664;2024-01-11T01:20:16;-3.80;88.80
52765;DHT22;38650;44.536;18.664;2024-01-11T01:22:41;-3.80;89.50
52765;DHT22;38650;44.536;18.664;2024-01-11T01:25:07;-3.80;88.60
52765;DHT22;38650;44.536;18.664;2024-01-11T01:27:33;-3.70;86.90
52765;DHT22;38650;44.536;18.664;2024-01-11T01:29:59;-3.80;86.90
52765;DHT22;38650;44.536;18.664;2024-01-11T01:32:24;-3.80;87.00
52765;DHT22;38650;44.536;18.664;2024-01-11T01:34:50;-3.70;87.70
52765;DHT22;38650;44.536;18.664;2024-01-11T01:37:16;-3.70;87.30
52765;DHT22;38650;44.536;18.664;2024-01-11T01:39:41;-3.80;87.60
52765;DHT22;38650;44.536;18.664;2024-01-11T01:42:08;-3.70;87.60
52765;DHT22;38650;44.536;18.664;2024-01-11T01:44:33;-3.80;88.40
52765;DHT22;38650;44.536;18.664;2024-01-11T01:47:00;-3.70;88.20
52765;DHT22;38650;44.536;18.664;2024-01-11T01:49:28;-3.80;85.90
52765;DHT22;38650;44.536;18.664;2024-01-11T01:51:53;-3.80;83.00
52765;DHT22;38650;44.536;18.664;2024-01-11T01:54:21;-3.90;82.60
52765;DHT22;38650;44.536;18.664;2024-01-11T01:56:48;-3.90;82.40
52765;DHT22;38650;44.536;18.664;2024-01-11T01:59:15;-4.00;81.60
52765;DHT22;38650;44.536;18.664;2024-01-11T02:01:41;-4.00;81.60
52765;DHT22;38650;44.536;18.664;2024-01-11T02:04:07;-4.00;81.30
52765;DHT22;38650;44.536;18.664;2024-01-11T02:06:33;-4.10;82.10
52765;DHT22;38650;44.536;18.664;2024-01-11T02:09:01;-4.10;83.00
52765;DHT22;38650;44.536;18.664;2024-01-11T02:11:28;-4.10;83.00
52765;DHT22;38650;44.536;18.664;2024-01-11T02:13:55;-4.20;83.30
52765;DHT22;38650;44.536;18.664;2024-01-11T02:16:21;-4.20;82.90
52765;DHT22;38650;44.536;18.664;2024-01-11T02:18:46;-4.20;83.10
52765;DHT22;38650;44.536;18.664;2024-01-11T02:21:14;-4.20;82.90
52765;DHT22;38650;44.536;18.664;2024-01-11T02:23:43;-4.20;82.30
52765;DHT22;38650;44.536;18.664;2024-01-11T02:26:15;-4.20;83.00
52765;DHT22;38650;44.536;18.664;2024-01-11T02:28:46;-4.20;81.90
52765;DHT22;38650;44.536;18.664;2024-01-11T02:31:15;-4.20;81.60
52765;DHT22;38650;44.536;18.664;2024-01-11T02:33:42;-4.20;81.50
52765;DHT22;38650;44.536;18.664;2024-01-11T02:36:08;-4.20;80.50
52765;DHT22;38650;44.536;18.664;2024-01-11T02:38:34;-4.20;81.00
52765;DHT22;38650;44.536;18.664;2024-01-11T02:41:01;-4.20;81.00
52765;DHT22;38650;44.536;18.664;2024-01-11T02:43:26;-4.10;81.60
52765;DHT22;38650;44.536;18.664;2024-01-11T02:45:55;-4.10;82.30
52765;DHT22;38650;44.536;18.664;2024-01-11T02:48:22;-4.10;83.80
52765;DHT22;38650;44.536;18.664;2024-01-11T02:50:48;-4.10;85.30
52765;DHT22;38650;44.536;18.664;2024-01-11T02:53:14;-4.00;83.90
52765;DHT22;38650;44.536;18.664;2024-01-11T02:55:40;-3.90;83.80
52765;DHT22;38650;44.536;18.664;2024-01-11T02:58:06;-3.90;85.20
52765;DHT22;38650;44.536;18.664;2024-01-11T03:00:31;-3.80;83.50
52765;DHT22;38650;44.536;18.664;2024-01-11T03:02:57;-3.70;84.20
52765;DHT22;38650;44.536;18.664;2024-01-11T03:05:22;-3.70;84.50
52765;DHT22;38650;44.536;18.664;2024-01-11T03:07:48;-3.60;83.90
52765;DHT22;38650;44.536;18.664;2024-01-11T03:10:14;-3.60;84.30
52765;DHT22;38650;44.536;18.664;2024-01-11T03:12:40;-3.60;83.60
52765;DHT22;38650;44.536;18.664;2024-01-11T03:15:06;-3.60;83.30
52765;DHT22;38650;44.536;18.664;2024-01-11T03:17:32;-3.50;83.30
52765;DHT22;38650;44.536;18.664;2024-01-11T03:19:58;-3.40;84.30
52765;DHT22;38650;44.536;18.664;2024-01-11T03:22:25;-3.50;83.70
52765;DHT22;38650;44.536;18.664;2024-01-11T03:24:50;-3.40;84.90
52765;DHT22;38650;44.536;18.664;2024-01-11T03:27:16;-3.50;84.90
52765;DHT22;38650;44.536;18.664;2024-01-11T03:29:42;-3.40;85.00
52765;DHT22;38650;44.536;18.664;2024-01-11T03:32:07;-3.40;85.00
52765;DHT22;38650;44.536;18.664;2024-01-11T03:34:33;-3.40;86.00
52765;DHT22;38650;44.536;18.664;2024-01-11T03:36:59;-3.30;85.80
52765;DHT22;38650;44.536;18.664;2024-01-11T03:39:25;-3.30;86.00
52765;DHT22;38650;44.536;18.664;2024-01-11T03:41:51;-3.30;86.00
52765;DHT22;38650;44.536;18.664;2024-01-11T03:44:17;-3.30;85.70
52765;DHT22;38650;44.536;18.664;2024-01-11T03:46:42;-3.30;86.20
52765;DHT22;38650;44.536;18.664;2024-01-11T03:49:08;-3.30;86.60
52765;DHT22;38650;44.536;18.664;2024-01-11T03:51:34;-3.30;86.60
52765;DHT22;38650;44.536;18.664;2024-01-11T03:54:00;-3.20;86.20
52765;DHT22;38650;44.536;18.664;2024-01-11T03:56:25;-3.20;86.00
52765;DHT22;38650;44.536;18.664;2024-01-11T03:58:51;-3.20;85.80
52765;DHT22;38650;44.536;18.664;2024-01-11T04:01:17;-3.20;84.70
52765;DHT22;38650;44.536;18.664;2024-01-11T04:03:42;-3.20;84.40
52765;DHT22;38650;44.536;18.664;2024-01-11T04:06:08;-3.20;85.40
52765;DHT22;38650;44.536;18.664;2024-01-11T04:08:34;-3.20;85.50
52765;DHT22;38650;44.536;18.664;2024-01-11T04:11:02;-3.20;85.40
52765;DHT22;38650;44.536;18.664;2024-01-11T04:13:29;-3.20;86.10
52765;DHT22;38650;44.536;18.664;2024-01-11T04:15:55;-3.10;87.50
52765;DHT22;38650;44.536;18.664;2024-01-11T04:18:20;-3.10;85.00
52765;DHT22;38650;44.536;18.664;2024-01-11T04:20:46;-3.10;86.60
52765;DHT22;38650;44.536;18.664;2024-01-11T04:23:12;-3.10;86.10
52765;DHT22;38650;44.536;18.664;2024-01-11T04:25:37;-3.10;86.70
52765;DHT22;38650;44.536;18.664;2024-01-11T04:28:03;-3.10;86.00
52765;DHT22;38650;44.536;18.664;2024-01-11T04:30:29;-3.10;85.80
52765;DHT22;38650;44.536;18.664;2024-01-11T04:32:55;-3.10;85.50
52765;DHT22;38650;44.536;18.664;2024-01-11T04:35:20;-3.20;85.40
52765;DHT22;38650;44.536;18.664;2024-01-11T04:37:46;-3.20;85.40
52765;DHT22;38650;44.536;18.664;2024-01-11T04:40:12;-3.10;84.30
52765;DHT22;38650;44.536;18.664;2024-01-11T04:42:37;-3.10;86.20
52765;DHT22;38650;44.536;18.664;2024-01-11T04:45:03;-3.10;85.40
52765;DHT22;38650;44.536;18.664;2024-01-11T04:47:30;-3.00;85.70
52765;DHT22;38650;44.536;18.664;2024-01-11T04:49:56;-3.00;84.50
52765;DHT22;38650;44.536;18.664;2024-01-11T04:52:21;-3.00;84.30
52765;DHT22;38650;44.536;18.664;2024-01-11T04:54:47;-3.00;85.60
52765;DHT22;38650;44.536;18.664;2024-01-11T04:57:13;-3.10;86.20
52765;DHT22;38650;44.536;18.664;2024-01-11T04:59:38;-3.10;87.10
52765;DHT22;38650;44.536;18.664;2024-01-11T05:02:04;-3.10;86.50
52765;DHT22;38650;44.536;18.664;2024-01-11T05:04:30;-3.00;86.70
52765;DHT22;38650;44.536;18.664;2024-01-11T05:06:55;-3.00;86.70
52765;DHT22;38650;44.536;18.664;2024-01-11T05:09:21;-3.00;87.10
52765;DHT22;38650;44.536;18.664;2024-01-11T05:11:47;-3.00;86.80
52765;DHT22;38650;44.536;18.664;2024-01-11T05:14:13;-2.90;86.80
52765;DHT22;38650;44.536;18.664;2024-01-11T05:16:38;-2.90;85.70
52765;DHT22;38650;44.536;18.664;2024-01-11T05:19:04;-2.90;86.60
52765;DHT22;38650;44.536;18.664;2024-01-11T05:21:30;-2.90;88.70
52765;DHT22;38650;44.536;18.664;2024-01-11T05:23:56;-2.90;89.10
52765;DHT22;38650;44.536;18.664;2024-01-11T05:26:22;-2.80;88.20
52765;DHT22;38650;44.536;18.664;2024-01-11T05:28:47;-2.80;87.90
52765;DHT22;38650;44.536;18.664;2024-01-11T05:31:14;-2.70;86.40
52765;DHT22;38650;44.536;18.664;2024-01-11T05:33:41;-2.70;84.90
52765;DHT22;38650;44.536;18.664;2024-01-11T05:36:07;-2.70;85.00
52765;DHT22;38650;44.536;18.664;2024-01-11T05:38:34;-2.80;85.90
52765;DHT22;38650;44.536;18.664;2024-01-11T05:40:59;-2.90;86.60
52765;DHT22;38650;44.536;18.664;2024-01-11T05:43:25;-2.80;87.20
52765;DHT22;38650;44.536;18.664;2024-01-11T05:45:51;-2.80;86.70
52765;DHT22;38650;44.536;18.664;2024-01-11T05:48:17;-2.80;86.60
52765;DHT22;38650;44.536;18.664;2024-01-11T05:50:44;-2.80;88.50
52765;DHT22;38650;44.536;18.664;2024-01-11T05:53:10;-2.70;87.20
52765;DHT22;38650;44.536;18.664;2024-01-11T05:55:36;-2.60;87.00
52765;DHT22;38650;44.536;18.664;2024-01-11T05:58:02;-2.60;89.20
52765;DHT22;38650;44.536;18.664;2024-01-11T06:00:27;-2.60;89.90
52765;DHT22;38650;44.536;18.664;2024-01-11T06:02:53;-2.70;90.30
52765;DHT22;38650;44.536;18.664;2024-01-11T06:05:19;-2.70;90.20
52765;DHT22;38650;44.536;18.664;2024-01-11T06:07:45;-2.70;90.70
52765;DHT22;38650;44.536;18.664;2024-01-11T06:10:10;-2.70;90.60
52765;DHT22;38650;44.536;18.664;2024-01-11T06:12:36;-2.60;90.10
52765;DHT22;38650;44.536;18.664;2024-01-11T06:15:02;-2.60;90.20
52765;DHT22;38650;44.536;18.664;2024-01-11T06:17:28;-2.50;90.00
52765;DHT22;38650;44.536;18.664;2024-01-11T06:19:54;-2.70;90.50
52765;DHT22;38650;44.536;18.664;2024-01-11T06:22:20;-2.80;91.40
52765;DHT22;38650;44.536;18.664;2024-01-11T06:24:46;-2.80;92.00
52765;DHT22;38650;44.536;18.664;2024-01-11T06:27:12;-2.70;92.40
52765;DHT22;38650;44.536;18.664;2024-01-11T06:29:38;-2.60;92.30
52765;DHT22;38650;44.536;18.664;2024-01-11T06:32:04;-2.50;92.40
52765;DHT22;38650;44.536;18.664;2024-01-11T06:34:30;-2.40;91.80
52765;DHT22;38650;44.536;18.664;2024-01-11T06:36:56;-2.30;91.90
52765;DHT22;38650;44.536;18.664;2024-01-11T06:39:22;-2.20;92.00
52765;DHT22;38650;44.536;18.664;2024-01-11T06:41:47;-2.20;91.80
52765;DHT22;38650;44.536;18.664;2024-01-11T06:44:13;-2.10;91.80
52765;DHT22;38650;44.536;18.664;2024-01-11T06:46:39;-2.10;91.30
52765;DHT22;38650;44.536;18.664;2024-01-11T06:49:07;-2.10;91.10
52765;DHT22;38650;44.536;18.664;2024-01-11T06:51:33;-2.00;91.70
52765;DHT22;38650;44.536;18.664;2024-01-11T06:53:59;-1.90;92.20
52765;DHT22;38650;44.536;18.664;2024-01-11T06:56:27;-1.90;91.50
52765;DHT22;38650;44.536;18.664;2024-01-11T06:58:53;-1.90;91.20
52765;DHT22;38650;44.536;18.664;2024-01-11T07:01:20;-2.00;91.00
52765;DHT22;38650;44.536;18.664;2024-01-11T07:03:45;-2.00;92.00
52765;DHT22;38650;44.536;18.664;2024-01-11T07:06:11;-2.10;92.10
52765;DHT22;38650;44.536;18.664;2024-01-11T07:08:37;-2.00;92.20
52765;DHT22;38650;44.536;18.664;2024-01-11T07:11:03;-1.90;91.80
52765;DHT22;38650;44.536;18.664;2024-01-11T07:13:32;-1.80;92.00
52765;DHT22;38650;44.536;18.664;2024-01-11T07:15:58;-1.70;92.20
52765;DHT22;38650;44.536;18.664;2024-01-11T07:18:24;-1.60;92.10
52765;DHT22;38650;44.536;18.664;2024-01-11T07:20:51;-1.50;92.30
52765;DHT22;38650;44.536;18.664;2024-01-11T07:23:17;-1.50;92.00
52765;DHT22;38650;44.536;18.664;2024-01-11T07:25:42;-1.40;92.90
52765;DHT22;38650;44.536;18.664;2024-01-11T07:28:08;-1.40;92.80
52765;DHT22;38650;44.536;18.664;2024-01-11T07:30:34;-1.40;92.90
52765;DHT22;38650;44.536;18.664;2024-01-11T07:33:00;-1.40;92.00
52765;DHT22;38650;44.536;18.664;2024-01-11T07:35:26;-1.30;92.10
52765;DHT22;38650;44.536;18.664;2024-01-11T07:37:52;-1.30;92.00
52765;DHT22;38650;44.536;18.664;2024-01-11T07:40:17;-1.40;92.70
52765;DHT22;38650;44.536;18.664;2024-01-11T07:42:43;-1.40;94.00
52765;DHT22;38650;44.536;18.664;2024-01-11T07:45:09;-1.40;94.00
52765;DHT22;38650;44.536;18.664;2024-01-11T07:47:39;-1.40;94.30
52765;DHT22;38650;44.536;18.664;2024-01-11T07:50:06;-1.50;95.00
52765;DHT22;38650;44.536;18.664;2024-01-11T07:52:36;-1.40;95.70
52765;DHT22;38650;44.536;18.664;2024-01-11T07:55:07;-1.40;95.60
52765;DHT22;38650;44.536;18.664;2024-01-11T07:57:36;-1.30;95.30
52765;DHT22;38650;44.536;18.664;2024-01-11T08:00:04;-1.20;95.20
52765;DHT22;38650;44.536;18.664;2024-01-11T08:02:32;-1.20;94.70
52765;DHT22;38650;44.536;18.664;2024-01-11T08:05:01;-1.20;94.60
52765;DHT22;38650;44.536;18.664;2024-01-11T08:07:27;-1.40;95.10
52765;DHT22;38650;44.536;18.664;2024-01-11T08:09:53;-1.30;96.00
52765;DHT22;38650;44.536;18.664;2024-01-11T08:12:19;-1.20;95.30
52765;DHT22;38650;44.536;18.664;2024-01-11T08:14:46;-1.20;95.10
52765;DHT22;38650;44.536;18.664;2024-01-11T08:17:15;-1.20;95.00
52765;DHT22;38650;44.536;18.664;2024-01-11T08:19:41;-1.20;95.40
52765;DHT22;38650;44.536;18.664;2024-01-11T08:22:11;-1.10;94.60
52765;DHT22;38650;44.536;18.664;2024-01-11T08:24:37;-1.10;94.60
52765;DHT22;38650;44.536;18.664;2024-01-11T08:27:04;-1.00;94.60
52765;DHT22;38650;44.536;18.664;2024-01-11T08:29:30;-1.10;95.00
52765;DHT22;38650;44.536;18.664;2024-01-11T08:31:55;-1.20;95.10
52765;DHT22;38650;44.536;18.664;2024-01-11T08:34:22;-1.20;94.80
52765;DHT22;38650;44.536;18.664;2024-01-11T08:36:48;-1.10;95.10
52765;DHT22;38650;44.536;18.664;2024-01-11T08:39:14;-1.10;95.40
52765;DHT22;38650;44.536;18.664;2024-01-11T08:41:40;-1.20;95.10
52765;DHT22;38650;44.536;18.664;2024-01-11T08:44:06;-1.20;95.30
52765;DHT22;38650;44.536;18.664;2024-01-11T08:46:32;-1.10;95.40
52765;DHT22;38650;44.536;18.664;2024-01-11T08:49:02;-1.00;95.50
52765;DHT22;38650;44.536;18.664;2024-01-11T08:51:31;-0.80;94.20
52765;DHT22;38650;44.536;18.664;2024-01-11T08:53:58;-0.90;94.60
52765;DHT22;38650;44.536;18.664;2024-01-11T08:56:23;-0.80;94.00
52765;DHT22;38650;44.536;18.664;2024-01-11T08:58:49;-0.60;94.10
52765;DHT22;38650;44.536;18.664;2024-01-11T09:01:15;-0.50;92.60
52765;DHT22;38650;44.536;18.664;2024-01-11T09:03:41;-0.40;93.10
52765;DHT22;38650;44.536;18.664;2024-01-11T09:06:07;-0.30;91.90
52765;DHT22;38650;44.536;18.664;2024-01-11T09:08:33;-0.30;91.80
52765;DHT22;38650;44.536;18.664;2024-01-11T09:11:08;-0.30;91.20
52765;DHT22;38650;44.536;18.664;2024-01-11T09:13:36;-0.30;91.70
52765;DHT22;38650;44.536;18.664;2024-01-11T09:16:02;-0.20;92.00
52765;DHT22;38650;44.536;18.664;2024-01-11T09:18:27;-0.10;91.90
52765;DHT22;38650;44.536;18.664;2024-01-11T09:20:53;0.10;89.50
52765;DHT22;38650;44.536;18.664;2024-01-11T09:23:19;-0.10;89.40
52765;DHT22;38650;44.536;18.664;2024-01-11T09:25:44;-0.20;91.80
52765;DHT22;38650;44.536;18.664;2024-01-11T09:28:10;-0.10;90.70
52765;DHT22;38650;44.536;18.664;2024-01-11T09:30:36;0.00;91.00
52765;DHT22;38650;44.536;18.664;2024-01-11T09:33:02;0.20;89.90
52765;DHT22;38650;44.536;18.664;2024-01-11T09:35:28;0.40;90.20
52765;DHT22;38650;44.536;18.664;2024-01-11T09:37:54;0.50;86.80
52765;DHT22;38650;44.536;18.664;2024-01-11T09:40:19;0.70;84.30
52765;DHT22;38650;44.536;18.664;2024-01-11T09:42:45;0.70;85.80
52765;DHT22;38650;44.536;18.664;2024-01-11T09:45:15;0.80;84.20
52765;DHT22;38650;44.536;18.664;2024-01-11T09:47:41;0.90;80.20
52765;DHT22;38650;44.536;18.664;2024-01-11T09:50:08;1.10;80.40
52765;DHT22;38650;44.536;18.664;2024-01-11T09:52:34;1.30;76.80
52765;DHT22;38650;44.536;18.664;2024-01-11T09:55:00;1.30;75.60
52765;DHT22;38650;44.536;18.664;2024-01-11T09:57:30;1.40;75.70
52765;DHT22;38650;44.536;18.664;2024-01-11T09:59:58;1.40;77.60
52765;DHT22;38650;44.536;18.664;2024-01-11T10:02:24;1.30;77.00
52765;DHT22;38650;44.536;18.664;2024-01-11T10:04:53;1.30;77.90
52765;DHT22;38650;44.536;18.664;2024-01-11T10:07:23;1.20;74.20
52765;DHT22;38650;44.536;18.664;2024-01-11T10:09:50;1.10;77.60
52765;DHT22;38650;44.536;18.664;2024-01-11T10:12:20;1.20;77.20
52765;DHT22;38650;44.536;18.664;2024-01-11T10:14:48;1.20;80.30
52765;DHT22;38650;44.536;18.664;2024-01-11T10:17:14;1.10;80.70
52765;DHT22;38650;44.536;18.664;2024-01-11T10:19:40;1.00;79.30
52765;DHT22;38650;44.536;18.664;2024-01-11T10:22:06;1.10;77.50
52765;DHT22;38650;44.536;18.664;2024-01-11T10:24:32;1.10;75.20
52765;DHT22;38650;44.536;18.664;2024-01-11T10:26:58;0.80;74.90
52765;DHT22;38650;44.536;18.664;2024-01-11T10:29:35;0.70;79.90
52765;DHT22;38650;44.536;18.664;2024-01-11T10:32:04;0.90;80.30
52765;DHT22;38650;44.536;18.664;2024-01-11T10:34:30;1.10;77.30
52765;DHT22;38650;44.536;18.664;2024-01-11T10:36:56;1.00;77.70
52765;DHT22;38650;44.536;18.664;2024-01-11T10:39:26;1.00;74.60
52765;DHT22;38650;44.536;18.664;2024-01-11T10:42:00;0.80;76.50
52765;DHT22;38650;44.536;18.664;2024-01-11T10:44:32;0.80;77.90
52765;DHT22;38650;44.536;18.664;2024-01-11T10:46:59;0.80;76.50
52765;DHT22;38650;44.536;18.664;2024-01-11T10:49:27;0.50;80.50
52765;DHT22;38650;44.536;18.664;2024-01-11T10:52:05;0.30;80.30
52765;DHT22;38650;44.536;18.664;2024-01-11T10:54:36;0.50;80.30
52765;DHT22;38650;44.536;18.664;2024-01-11T10:57:02;0.60;80.50
52765;DHT22;38650;44.536;18.664;2024-01-11T10:59:31;0.60;82.40
52765;DHT22;38650;44.536;18.664;2024-01-11T11:01:58;0.60;82.90
52765;DHT22;38650;44.536;18.664;2024-01-11T11:04:26;0.70;84.00
52765;DHT22;38650;44.536;18.664;2024-01-11T11:06:55;0.90;81.20
52765;DHT22;38650;44.536;18.664;2024-01-11T11:09:25;1.00;78.40
52765;DHT22;38650;44.536;18.664;2024-01-11T11:11:54;1.10;77.00
52765;DHT22;38650;44.536;18.664;2024-01-11T11:14:22;1.00;79.20
52765;DHT22;38650;44.536;18.664;2024-01-11T11:16:48;0.90;78.90
52765;DHT22;38650;44.536;18.664;2024-01-11T11:19:14;1.00;79.30
52765;DHT22;38650;44.536;18.664;2024-01-11T11:21:47;1.10;78.90
52765;DHT22;38650;44.536;18.664;2024-01-11T11:24:13;1.20;77.90
52765;DHT22;38650;44.536;18.664;2024-01-11T11:26:39;1.10;79.40
52765;DHT22;38650;44.536;18.664;2024-01-11T11:29:05;1.00;78.30
52765;DHT22;38650;44.536;18.664;2024-01-11T11:31:44;0.90;76.30
52765;DHT22;38650;44.536;18.664;2024-01-11T11:34:13;0.90;77.90
52765;DHT22;38650;44.536;18.664;2024-01-11T11:36:40;0.90;77.40
52765;DHT22;38650;44.536;18.664;2024-01-11T11:39:10;0.90;79.30
52765;DHT22;38650;44.536;18.664;2024-01-11T11:41:37;0.80;81.00
52765;DHT22;38650;44.536;18.664;2024-01-11T11:44:04;0.70;82.30
52765;DHT22;38650;44.536;18.664;2024-01-11T11:46:31;0.60;85.90
52765;DHT22;38650;44.536;18.664;2024-01-11T11:48:57;0.60;88.30
52765;DHT22;38650;44.536;18.664;2024-01-11T11:51:24;0.60;86.40
52765;DHT22;38650;44.536;18.664;2024-01-11T11:53:51;0.80;82.80
52765;DHT22;38650;44.536;18.664;2024-01-11T11:56:19;1.00;79.20
52765;DHT22;38650;44.536;18.664;2024-01-11T11:58:46;1.10;75.30
52765;DHT22;38650;44.536;18.664;2024-01-11T12:01:13;1.10;77.90
52765;DHT22;38650;44.536;18.664;2024-01-11T12:03:41;1.20;76.60
52765;DHT22;38650;44.536;18.664;2024-01-11T12:06:08;1.40;74.20
52765;DHT22;38650;44.536;18.664;2024-01-11T12:08:36;1.50;73.00
52765;DHT22;38650;44.536;18.664;2024-01-11T12:11:02;1.60;70.40
52765;DHT22;38650;44.536;18.664;2024-01-11T12:13:28;1.50;68.80
52765;DHT22;38650;44.536;18.664;2024-01-11T12:15:55;1.50;70.00
52765;DHT22;38650;44.536;18.664;2024-01-11T12:18:21;1.50;69.60
52765;DHT22;38650;44.536;18.664;2024-01-11T12:20:47;1.30;70.50
52765;DHT22;38650;44.536;18.664;2024-01-11T12:23:13;1.10;73.90
52765;DHT22;38650;44.536;18.664;2024-01-11T12:25:42;1.10;79.00
52765;DHT22;38650;44.536;18.664;2024-01-11T12:28:07;0.90;82.70
52765;DHT22;38650;44.536;18.664;2024-01-11T12:30:33;0.90;78.90
52765;DHT22;38650;44.536;18.664;2024-01-11T12:33:00;1.10;78.80
52765;DHT22;38650;44.536;18.664;2024-01-11T12:35:32;1.10;77.10
52765;DHT22;38650;44.536;18.664;2024-01-11T12:38:05;1.00;76.50
52765;DHT22;38650;44.536;18.664;2024-01-11T12:40:35;0.80;75.90
52765;DHT22;38650;44.536;18.664;2024-01-11T12:43:06;0.60;82.50
52765;DHT22;38650;44.536;18.664;2024-01-11T12:45:34;0.50;81.80
52765;DHT22;38650;44.536;18.664;2024-01-11T12:48:00;0.30;85.00
52765;DHT22;38650;44.536;18.664;2024-01-11T12:50:27;0.30;86.10
52765;DHT22;38650;44.536;18.664;2024-01-11T12:53:10;0.30;84.80
52765;DHT22;38650;44.536;18.664;2024-01-11T12:55:37;0.40;85.40
52765;DHT22;38650;44.536;18.664;2024-01-11T12:58:05;0.50;86.90
52765;DHT22;38650;44.536;18.664;2024-01-11T13:00:31;0.60;84.10
52765;DHT22;38650;44.536;18.664;2024-01-11T13:02:57;0.60;84.80
52765;DHT22;38650;44.536;18.664;2024-01-11T13:05:23;0.80;83.30
52765;DHT22;38650;44.536;18.664;2024-01-11T13:07:48;1.00;81.60
52765;DHT22;38650;44.536;18.664;2024-01-11T13:10:14;1.00;80.90
52765;DHT22;38650;44.536;18.664;2024-01-11T13:12:40;1.20;80.00
52765;DHT22;38650;44.536;18.664;2024-01-11T13:15:06;1.20;76.00
52765;DHT22;38650;44.536;18.664;2024-01-11T13:17:32;1.20;75.50
52765;DHT22;38650;44.536;18.664;2024-01-11T13:19:57;1.10;76.50
52765;DHT22;38650;44.536;18.664;2024-01-11T13:22:24;1.00;80.20
52765;DHT22;38650;44.536;18.664;2024-01-11T13:24:50;1.00;81.30
52765;DHT22;38650;44.536;18.664;2024-01-11T13:27:16;1.10;79.50
52765;DHT22;38650;44.536;18.664;2024-01-11T13:29:42;1.20;77.20
52765;DHT22;38650;44.536;18.664;2024-01-11T13:32:07;1.10;75.80
52765;DHT22;38650;44.536;18.664;2024-01-11T13:34:33;0.70;80.60
52765;DHT22;38650;44.536;18.664;2024-01-11T13:36:59;0.60;85.00
52765;DHT22;38650;44.536;18.664;2024-01-11T13:39:25;0.70;85.60
52765;DHT22;38650;44.536;18.664;2024-01-11T13:41:51;0.80;84.00
52765;DHT22;38650;44.536;18.664;2024-01-11T13:44:17;0.80;84.00
52765;DHT22;38650;44.536;18.664;2024-01-11T13:46:42;0.80;84.90
52765;DHT22;38650;44.536;18.664;2024-01-11T13:49:09;0.70;84.60
52765;DHT22;38650;44.536;18.664;2024-01-11T13:51:35;0.70;86.10
52765;DHT22;38650;44.536;18.664;2024-01-11T13:54:03;0.70;86.10
52765;DHT22;38650;44.536;18.664;2024-01-11T13:56:28;0.80;86.20
52765;DHT22;38650;44.536;18.664;2024-01-11T13:58:55;0.70;84.80
52765;DHT22;38650;44.536;18.664;2024-01-11T14:01:20;0.60;85.70
52765;DHT22;38650;44.536;18.664;2024-01-11T14:03:46;0.40;89.10
52765;DHT22;38650;44.536;18.664;2024-01-11T14:06:12;0.40;89.30
52765;DHT22;38650;44.536;18.664;2024-01-11T14:08:38;0.40;89.40
52765;DHT22;38650;44.536;18.664;2024-01-11T14:11:04;0.40;90.00
52765;DHT22;38650;44.536;18.664;2024-01-11T14:13:30;0.40;88.80
52765;DHT22;38650;44.536;18.664;2024-01-11T14:15:55;0.40;87.90
52765;DHT22;38650;44.536;18.664;2024-01-11T14:18:23;0.50;89.70
52765;DHT22;38650;44.536;18.664;2024-01-11T14:20:49;0.50;88.50
52765;DHT22;38650;44.536;18.664;2024-01-11T14:23:15;0.40;90.10
52765;DHT22;38650;44.536;18.664;2024-01-11T14:25:41;0.30;90.50
52765;DHT22;38650;44.536;18.664;2024-01-11T14:28:06;0.40;90.10
52765;DHT22;38650;44.536;18.664;2024-01-11T14:30:33;0.30;87.60
52765;DHT22;38650;44.536;18.664;2024-01-11T14:33:00;0.40;88.10
52765;DHT22;38650;44.536;18.664;2024-01-11T14:35:25;0.50;88.60
52765;DHT22;38650;44.536;18.664;2024-01-11T14:37:51;0.50;86.20
52765;DHT22;38650;44.536;18.664;2024-01-11T14:40:18;0.50;86.20
52765;DHT22;38650;44.536;18.664;2024-01-11T14:42:44;0.50;84.00
52765;DHT22;38650;44.536;18.664;2024-01-11T14:45:10;0.20;85.10
52765;DHT22;38650;44.536;18.664;2024-01-11T14:47:35;0.20;86.30
52765;DHT22;38650;44.536;18.664;2024-01-11T14:50:01;0.00;89.50
52765;DHT22;38650;44.536;18.664;2024-01-11T14:52:29;0.00;89.00
52765;DHT22;38650;44.536;18.664;2024-01-11T14:54:56;-0.20;89.90
52765;DHT22;38650;44.536;18.664;2024-01-11T14:57:22;-0.10;90.80
52765;DHT22;38650;44.536;18.664;2024-01-11T14:59:48;-0.10;91.20
52765;DHT22;38650;44.536;18.664;2024-01-11T15:02:13;0.00;91.10
52765;DHT22;38650;44.536;18.664;2024-01-11T15:04:39;0.00;91.70
52765;DHT22;38650;44.536;18.664;2024-01-11T15:07:05;-0.10;92.10
52765;DHT22;38650;44.536;18.664;2024-01-11T15:09:30;-0.20;91.10
52765;DHT22;38650;44.536;18.664;2024-01-11T15:11:56;-0.20;92.20
52765;DHT22;38650;44.536;18.664;2024-01-11T15:14:22;-0.20;92.60
52765;DHT22;38650;44.536;18.664;2024-01-11T15:16:48;-0.20;92.20
52765;DHT22;38650;44.536;18.664;2024-01-11T15:19:14;-0.20;92.30